Coral Leaf — PHNI — position and weather

sailwx.info

Track history (hours):
 
Tides and Currents Weather Stations Pressure Air Temp Water Temp Dewpoint Dewpoint Depression Visibility Wind Speed Wind Dir Waves Ship Positions

Coral Leaf

Last reported at 2017-May-23 01:02 UTC. Time now 2017-May-23 17:03 UTC.
Position N 54°04' E 008°09'.

Length 108 m; draft 5.3 m.

Type: Tanker. MMSI: 244036000.

Date/timePositionNaut miles runAvg speedWind from/ knotsBaromVisibWave heightAir tempDewpointWater temp
2017-May-23 01:02N 54°04' E 008°09'0 0.0
2017-May-23 00:38N 54°04' E 008°09'0 0.0
2017-May-22 23:32N 54°04' E 008°09'0 0.0
2017-May-22 01:41N 54°04' E 008°09'0 0.0
2017-May-22 01:17N 54°04' E 008°09'0 0.0
2017-May-21 06:14N 54°04' E 008°09'0 0.0
2017-May-21 05:44N 54°04' E 008°09'0 0.0
2017-May-20 23:02N 54°04' E 008°09'0 0.1
2017-May-20 22:56N 54°04' E 008°09'0 0.0
2017-May-20 22:20N 54°04' E 008°09'0 0.0
2017-May-20 20:35N 54°04' E 008°09'0 0.1
2017-May-20 20:14N 54°04' E 008°09'0 0.0
2017-May-20 06:23N 54°04' E 008°09'0 0.0
2017-May-20 03:50N 54°04' E 008°09'0 0.0
2017-May-20 03:29N 54°04' E 008°09'  
2017-May-17 08:26N 54°04' E 008°09'0 0.0
2017-May-15 20:32N 54°04' E 008°09'0 0.0
2017-May-14 23:44N 54°04' E 008°09'0 0.0
2017-May-14 17:14N 54°04' E 008°09'0 0.4
2017-May-14 16:55N 54°04' E 008°09'410.2
2017-May-14 16:30N 54°00' E 008°13'1515.9
2017-May-14 15:33N 53°57' E 008°38'116.4
2017-May-14 15:30N 53°57' E 008°39'613.0
2017-May-14 15:01N 53°51' E 008°45'713.1
2017-May-14 14:30N 53°51' E 008°57'1111.4
2017-May-14 13:30N 53°52' E 009°16'612.5
2017-May-14 13:00N 53°48' E 009°23'612.8
2017-May-14 12:30N 53°43' E 009°29'4 7.5
2017-May-14 12:00N 53°39' E 009°31'0 0.0
2017-May-14 11:27N 53°39' E 009°31'0 0.0
2017-May-14 10:57N 53°39' E 009°31'0 0.0
2017-May-14 10:27N 53°39' E 009°31'0 0.0
2017-May-14 09:45N 53°39' E 009°31'0 0.0
2017-May-14 09:27N 53°39' E 009°31'0 0.0
2017-May-14 08:57N 53°39' E 009°31'0 0.0
2017-May-14 08:27N 53°39' E 009°31'0 0.0
2017-May-14 07:57N 53°39' E 009°31'0 0.0
2017-May-14 07:27N 53°39' E 009°31'0 0.0
2017-May-14 06:57N 53°39' E 009°31'0 0.0
2017-May-14 06:21N 53°39' E 009°31'0 0.0
2017-May-14 05:57N 53°39' E 009°31'0 0.0
2017-May-14 05:27N 53°39' E 009°31'0 0.0
2017-May-14 04:57N 53°39' E 009°31'0 0.0
2017-May-14 04:27N 53°39' E 009°31'0 0.0
2017-May-14 03:57N 53°39' E 009°31'0 0.0
2017-May-14 03:27N 53°39' E 009°31'0 0.0
2017-May-14 02:57N 53°39' E 009°31'0 0.0
2017-May-14 02:27N 53°39' E 009°31'0 0.0
2017-May-14 01:57N 53°39' E 009°31'0 0.0
2017-May-14 01:27N 53°39' E 009°31'0 0.0
2017-May-14 00:57N 53°39' E 009°31'0 0.0
2017-May-14 00:27N 53°39' E 009°31'0 0.0
2017-May-13 23:57N 53°39' E 009°31'0 0.0
2017-May-13 23:27N 53°39' E 009°31'0 0.0
2017-May-13 22:57N 53°39' E 009°31'0 0.0
2017-May-13 22:27N 53°39' E 009°31'0 0.0
2017-May-13 21:57N 53°39' E 009°31'0 0.0
2017-May-13 21:27N 53°39' E 009°31'0 0.0
2017-May-13 20:57N 53°39' E 009°31'0 0.0
2017-May-13 20:27N 53°39' E 009°31'0 0.0
2017-May-13 19:57N 53°39' E 009°31'0 0.0
2017-May-13 19:27N 53°39' E 009°31'0 0.0
2017-May-13 18:57N 53°39' E 009°31'0 0.0
2017-May-13 18:21N 53°39' E 009°31'0 0.0
2017-May-13 18:00N 53°39' E 009°31'0 0.0
2017-May-13 17:24N 53°39' E 009°31'0 0.0
2017-May-13 17:00N 53°39' E 009°31'0 0.0
2017-May-13 16:30N 53°39' E 009°31'0 0.4
2017-May-13 16:00N 53°39' E 009°31'1 1.4
2017-May-13 15:30N 53°40' E 009°31'2 4.5
2017-May-13 15:00N 53°42' E 009°30'611.5
2017-May-13 14:30N 53°46' E 009°24'1111.1
2017-May-13 13:31N 53°53' E 009°09'713.2
2017-May-13 13:01N 53°51' E 008°58'815.0
2017-May-13 12:31N 53°51' E 008°45'714.3
2017-May-13 12:00N 53°57' E 008°38'815.6
2017-May-13 11:30N 53°59' E 008°25'815.4
2017-May-13 11:00N 53°60' E 008°12'4 6.9
2017-May-13 10:29N 54°01' E 008°06'2 3.8
2017-May-13 09:59N 54°02' E 008°09'0 0.1
2017-May-13 09:29N 54°02' E 008°09'0 0.0
2017-May-13 08:56N 54°02' E 008°09'0 0.2
2017-May-13 08:17N 54°02' E 008°09'0 0.1
2017-May-13 07:59N 54°02' E 008°08'0 0.0
2017-May-13 07:29N 54°02' E 008°08'0 0.0
2017-May-13 06:56N 54°02' E 008°08'0 0.0
2017-May-13 06:23N 54°02' E 008°08'0 0.0
2017-May-13 05:59N 54°02' E 008°08'0 0.0
2017-May-13 05:29N 54°02' E 008°08'0 0.1
2017-May-13 04:59N 54°02' E 008°08'0 0.0
2017-May-13 04:29N 54°02' E 008°08'0 0.1
2017-May-13 03:59N 54°02' E 008°08'0 0.0
2017-May-13 03:29N 54°02' E 008°09'0 0.1
2017-May-13 02:59N 54°02' E 008°09'0 0.0
2017-May-13 02:26N 54°02' E 008°09'0 0.1
2017-May-13 01:59N 54°02' E 008°09'  
Track history (hours):
 
Tides and Currents Weather Stations Pressure Air Temp Water Temp Dewpoint Dewpoint Depression Visibility Wind Speed Wind Dir Waves Ship Positions

Coral Leaf

Last reported at 2017-May-23 01:02 UTC. Time now 2017-May-23 17:03 UTC.
Position N 54°04' E 008°09'.

Length 108 m; draft 5.3 m.

Type: Tanker. MMSI: 244036000.

Date/timePositionNaut miles runAvg speedWind from/ knotsBaromVisibWave heightAir tempDewpointWater temp
2017-May-23 01:02N 54°04' E 008°09'0 0.0
2017-May-23 00:38N 54°04' E 008°09'0 0.0
2017-May-22 23:32N 54°04' E 008°09'0 0.0
2017-May-22 01:41N 54°04' E 008°09'0 0.0
2017-May-22 01:17N 54°04' E 008°09'0 0.0
2017-May-21 06:14N 54°04' E 008°09'0 0.0
2017-May-21 05:44N 54°04' E 008°09'0 0.0
2017-May-20 23:02N 54°04' E 008°09'0 0.1
2017-May-20 22:56N 54°04' E 008°09'0 0.0
2017-May-20 22:20N 54°04' E 008°09'0 0.0
2017-May-20 20:35N 54°04' E 008°09'0 0.1
2017-May-20 20:14N 54°04' E 008°09'0 0.0
2017-May-20 06:23N 54°04' E 008°09'0 0.0
2017-May-20 03:50N 54°04' E 008°09'0 0.0
2017-May-20 03:29N 54°04' E 008°09'  
2017-May-17 08:26N 54°04' E 008°09'0 0.0
2017-May-15 20:32N 54°04' E 008°09'0 0.0
2017-May-14 23:44N 54°04' E 008°09'0 0.0
2017-May-14 17:14N 54°04' E 008°09'0 0.4
2017-May-14 16:55N 54°04' E 008°09'410.2
2017-May-14 16:30N 54°00' E 008°13'1515.9
2017-May-14 15:33N 53°57' E 008°38'116.4
2017-May-14 15:30N 53°57' E 008°39'613.0
2017-May-14 15:01N 53°51' E 008°45'713.1
2017-May-14 14:30N 53°51' E 008°57'1111.4
2017-May-14 13:30N 53°52' E 009°16'612.5
2017-May-14 13:00N 53°48' E 009°23'612.8
2017-May-14 12:30N 53°43' E 009°29'4 7.5
2017-May-14 12:00N 53°39' E 009°31'0 0.0
2017-May-14 11:27N 53°39' E 009°31'0 0.0
2017-May-14 10:57N 53°39' E 009°31'0 0.0
2017-May-14 10:27N 53°39' E 009°31'0 0.0
2017-May-14 09:45N 53°39' E 009°31'0 0.0
2017-May-14 09:27N 53°39' E 009°31'0 0.0
2017-May-14 08:57N 53°39' E 009°31'0 0.0
2017-May-14 08:27N 53°39' E 009°31'0 0.0
2017-May-14 07:57N 53°39' E 009°31'0 0.0
2017-May-14 07:27N 53°39' E 009°31'0 0.0
2017-May-14 06:57N 53°39' E 009°31'0 0.0
2017-May-14 06:21N 53°39' E 009°31'0 0.0
2017-May-14 05:57N 53°39' E 009°31'0 0.0
2017-May-14 05:27N 53°39' E 009°31'0 0.0
2017-May-14 04:57N 53°39' E 009°31'0 0.0
2017-May-14 04:27N 53°39' E 009°31'0 0.0
2017-May-14 03:57N 53°39' E 009°31'0 0.0
2017-May-14 03:27N 53°39' E 009°31'0 0.0
2017-May-14 02:57N 53°39' E 009°31'0 0.0
2017-May-14 02:27N 53°39' E 009°31'0 0.0
2017-May-14 01:57N 53°39' E 009°31'0 0.0
2017-May-14 01:27N 53°39' E 009°31'0 0.0
2017-May-14 00:57N 53°39' E 009°31'0 0.0
2017-May-14 00:27N 53°39' E 009°31'0 0.0
2017-May-13 23:57N 53°39' E 009°31'0 0.0
2017-May-13 23:27N 53°39' E 009°31'0 0.0
2017-May-13 22:57N 53°39' E 009°31'0 0.0
2017-May-13 22:27N 53°39' E 009°31'0 0.0
2017-May-13 21:57N 53°39' E 009°31'0 0.0
2017-May-13 21:27N 53°39' E 009°31'0 0.0
2017-May-13 20:57N 53°39' E 009°31'0 0.0
2017-May-13 20:27N 53°39' E 009°31'0 0.0
2017-May-13 19:57N 53°39' E 009°31'0 0.0
2017-May-13 19:27N 53°39' E 009°31'0 0.0
2017-May-13 18:57N 53°39' E 009°31'0 0.0
2017-May-13 18:21N 53°39' E 009°31'0 0.0
2017-May-13 18:00N 53°39' E 009°31'0 0.0
2017-May-13 17:24N 53°39' E 009°31'0 0.0
2017-May-13 17:00N 53°39' E 009°31'0 0.0
2017-May-13 16:30N 53°39' E 009°31'0 0.4
2017-May-13 16:00N 53°39' E 009°31'1 1.4
2017-May-13 15:30N 53°40' E 009°31'2 4.5
2017-May-13 15:00N 53°42' E 009°30'611.5
2017-May-13 14:30N 53°46' E 009°24'1111.1
2017-May-13 13:31N 53°53' E 009°09'713.2
2017-May-13 13:01N 53°51' E 008°58'815.0
2017-May-13 12:31N 53°51' E 008°45'714.3
2017-May-13 12:00N 53°57' E 008°38'815.6
2017-May-13 11:30N 53°59' E 008°25'815.4
2017-May-13 11:00N 53°60' E 008°12'4 6.9
2017-May-13 10:29N 54°01' E 008°06'2 3.8
2017-May-13 09:59N 54°02' E 008°09'0 0.1
2017-May-13 09:29N 54°02' E 008°09'0 0.0
2017-May-13 08:56N 54°02' E 008°09'0 0.2
2017-May-13 08:17N 54°02' E 008°09'0 0.1
2017-May-13 07:59N 54°02' E 008°08'0 0.0
2017-May-13 07:29N 54°02' E 008°08'0 0.0
2017-May-13 06:56N 54°02' E 008°08'0 0.0
2017-May-13 06:23N 54°02' E 008°08'0 0.0
2017-May-13 05:59N 54°02' E 008°08'0 0.0
2017-May-13 05:29N 54°02' E 008°08'0 0.1
2017-May-13 04:59N 54°02' E 008°08'0 0.0
2017-May-13 04:29N 54°02' E 008°08'0 0.1
2017-May-13 03:59N 54°02' E 008°08'0 0.0
2017-May-13 03:29N 54°02' E 008°09'0 0.1
2017-May-13 02:59N 54°02' E 008°09'0 0.0
2017-May-13 02:26N 54°02' E 008°09'0 0.1
2017-May-13 01:59N 54°02' E 008°09'  

Dump ship's entire track history